sensor_id;sensor_type;location;lat;lon;timestamp;P1;durP1;ratioP1;P2;durP2;ratioP2
30149;SDS011;16962;48.646;9.026;2022-07-21T00:02:14;24.05;;;20.35;;
30149;SDS011;16962;48.646;9.026;2022-07-21T00:05:03;30.00;;;21.60;;
30149;SDS011;16962;48.646;9.026;2022-07-21T00:07:51;27.25;;;21.65;;
30149;SDS011;16962;48.646;9.026;2022-07-21T00:10:41;26.63;;;23.30;;
30149;SDS011;16962;48.646;9.026;2022-07-21T00:13:30;29.13;;;22.65;;
30149;SDS011;16962;48.646;9.026;2022-07-21T00:16:17;29.48;;;22.77;;
30149;SDS011;16962;48.646;9.026;2022-07-21T00:19:10;34.75;;;25.08;;
30149;SDS011;16962;48.646;9.026;2022-07-21T00:22:00;33.30;;;25.05;;
30149;SDS011;16962;48.646;9.026;2022-07-21T00:24:47;30.42;;;24.60;;
30149;SDS011;16962;48.646;9.026;2022-07-21T00:27:36;28.80;;;25.50;;
30149;SDS011;16962;48.646;9.026;2022-07-21T00:30:23;26.48;;;20.58;;
30149;SDS011;16962;48.646;9.026;2022-07-21T00:33:10;26.85;;;22.05;;
30149;SDS011;16962;48.646;9.026;2022-07-21T00:35:57;27.92;;;22.67;;
30149;SDS011;16962;48.646;9.026;2022-07-21T00:38:44;30.05;;;22.75;;
30149;SDS011;16962;48.646;9.026;2022-07-21T00:41:34;24.63;;;21.55;;
30149;SDS011;16962;48.646;9.026;2022-07-21T00:44:24;28.90;;;22.50;;
30149;SDS011;16962;48.646;9.026;2022-07-21T00:47:23;30.17;;;24.23;;
30149;SDS011;16962;48.646;9.026;2022-07-21T00:50:12;38.85;;;28.15;;
30149;SDS011;16962;48.646;9.026;2022-07-21T00:53:06;34.08;;;27.23;;
30149;SDS011;16962;48.646;9.026;2022-07-21T00:55:57;30.33;;;22.67;;
30149;SDS011;16962;48.646;9.026;2022-07-21T00:58:45;27.27;;;20.45;;
30149;SDS011;16962;48.646;9.026;2022-07-21T01:01:33;21.23;;;17.27;;
30149;SDS011;16962;48.646;9.026;2022-07-21T01:04:24;23.88;;;16.95;;
30149;SDS011;16962;48.646;9.026;2022-07-21T01:07:13;23.08;;;16.00;;
30149;SDS011;16962;48.646;9.026;2022-07-21T01:10:02;22.00;;;15.85;;
30149;SDS011;16962;48.646;9.026;2022-07-21T01:12:50;20.33;;;15.43;;
30149;SDS011;16962;48.646;9.026;2022-07-21T01:15:38;17.55;;;14.50;;
30149;SDS011;16962;48.646;9.026;2022-07-21T01:18:25;20.02;;;14.85;;
30149;SDS011;16962;48.646;9.026;2022-07-21T01:21:34;17.38;;;14.18;;
30149;SDS011;16962;48.646;9.026;2022-07-21T01:24:27;17.30;;;15.10;;
30149;SDS011;16962;48.646;9.026;2022-07-21T01:27:17;18.90;;;14.85;;
30149;SDS011;16962;48.646;9.026;2022-07-21T01:30:13;18.85;;;15.68;;
30149;SDS011;16962;48.646;9.026;2022-07-21T01:33:06;22.30;;;15.45;;
30149;SDS011;16962;48.646;9.026;2022-07-21T01:35:53;19.73;;;15.25;;
30149;SDS011;16962;48.646;9.026;2022-07-21T01:38:40;21.25;;;14.63;;
30149;SDS011;16962;48.646;9.026;2022-07-21T01:41:46;18.55;;;15.90;;
30149;SDS011;16962;48.646;9.026;2022-07-21T01:44:36;18.23;;;14.07;;
30149;SDS011;16962;48.646;9.026;2022-07-21T01:47:24;22.48;;;14.82;;
30149;SDS011;16962;48.646;9.026;2022-07-21T01:50:11;18.77;;;14.70;;
30149;SDS011;16962;48.646;9.026;2022-07-21T01:53:00;21.90;;;16.13;;
30149;SDS011;16962;48.646;9.026;2022-07-21T01:55:52;20.20;;;16.55;;
30149;SDS011;16962;48.646;9.026;2022-07-21T01:58:44;17.17;;;15.18;;
30149;SDS011;16962;48.646;9.026;2022-07-21T02:01:36;22.05;;;14.85;;
30149;SDS011;16962;48.646;9.026;2022-07-21T02:07:17;22.02;;;16.00;;
30149;SDS011;16962;48.646;9.026;2022-07-21T02:10:04;21.67;;;17.63;;
30149;SDS011;16962;48.646;9.026;2022-07-21T02:12:52;25.83;;;18.85;;
30149;SDS011;16962;48.646;9.026;2022-07-21T02:15:41;27.00;;;19.35;;
30149;SDS011;16962;48.646;9.026;2022-07-21T02:18:29;22.70;;;18.95;;
30149;SDS011;16962;48.646;9.026;2022-07-21T02:21:19;26.08;;;19.65;;
30149;SDS011;16962;48.646;9.026;2022-07-21T02:24:08;28.05;;;21.60;;
30149;SDS011;16962;48.646;9.026;2022-07-21T02:27:00;29.02;;;20.13;;
30149;SDS011;16962;48.646;9.026;2022-07-21T02:29:47;31.15;;;21.98;;
30149;SDS011;16962;48.646;9.026;2022-07-21T02:32:39;30.10;;;22.70;;
30149;SDS011;16962;48.646;9.026;2022-07-21T02:35:28;28.20;;;21.45;;
30149;SDS011;16962;48.646;9.026;2022-07-21T02:38:16;30.58;;;22.75;;
30149;SDS011;16962;48.646;9.026;2022-07-21T02:41:05;25.45;;;21.80;;
30149;SDS011;16962;48.646;9.026;2022-07-21T02:43:55;28.83;;;22.65;;
30149;SDS011;16962;48.646;9.026;2022-07-21T02:46:44;28.17;;;22.27;;
30149;SDS011;16962;48.646;9.026;2022-07-21T02:49:36;28.98;;;21.33;;
30149;SDS011;16962;48.646;9.026;2022-07-21T02:52:24;26.58;;;22.52;;
30149;SDS011;16962;48.646;9.026;2022-07-21T02:55:11;30.08;;;22.90;;
30149;SDS011;16962;48.646;9.026;2022-07-21T02:58:14;28.27;;;22.17;;
30149;SDS011;16962;48.646;9.026;2022-07-21T03:01:05;27.80;;;21.13;;
30149;SDS011;16962;48.646;9.026;2022-07-21T03:03:55;28.65;;;21.25;;
30149;SDS011;16962;48.646;9.026;2022-07-21T03:06:42;23.98;;;20.05;;
30149;SDS011;16962;48.646;9.026;2022-07-21T03:09:30;29.60;;;21.45;;
30149;SDS011;16962;48.646;9.026;2022-07-21T03:12:17;25.60;;;20.05;;
30149;SDS011;16962;48.646;9.026;2022-07-21T03:15:10;28.70;;;21.10;;
30149;SDS011;16962;48.646;9.026;2022-07-21T03:18:02;29.70;;;20.40;;
30149;SDS011;16962;48.646;9.026;2022-07-21T03:20:49;27.30;;;19.45;;
30149;SDS011;16962;48.646;9.026;2022-07-21T03:23:38;27.95;;;20.17;;
30149;SDS011;16962;48.646;9.026;2022-07-21T03:26:34;25.15;;;19.77;;
30149;SDS011;16962;48.646;9.026;2022-07-21T03:29:25;25.88;;;20.05;;
30149;SDS011;16962;48.646;9.026;2022-07-21T03:32:14;24.85;;;20.17;;
30149;SDS011;16962;48.646;9.026;2022-07-21T03:35:04;25.08;;;20.42;;
30149;SDS011;16962;48.646;9.026;2022-07-21T03:37:56;27.27;;;21.13;;
30149;SDS011;16962;48.646;9.026;2022-07-21T03:40:45;26.33;;;21.50;;
30149;SDS011;16962;48.646;9.026;2022-07-21T03:43:35;28.08;;;22.70;;
30149;SDS011;16962;48.646;9.026;2022-07-21T03:46:22;27.27;;;21.75;;
30149;SDS011;16962;48.646;9.026;2022-07-21T03:49:10;34.35;;;22.92;;
30149;SDS011;16962;48.646;9.026;2022-07-21T03:52:02;31.95;;;22.73;;
30149;SDS011;16962;48.646;9.026;2022-07-21T03:54:50;29.40;;;24.05;;
30149;SDS011;16962;48.646;9.026;2022-07-21T03:58:03;30.88;;;23.73;;
30149;SDS011;16962;48.646;9.026;2022-07-21T04:05:03;32.67;;;24.95;;
30149;SDS011;16962;48.646;9.026;2022-07-21T04:07:51;33.17;;;25.10;;
30149;SDS011;16962;48.646;9.026;2022-07-21T04:10:44;40.58;;;26.67;;
30149;SDS011;16962;48.646;9.026;2022-07-21T04:13:33;37.05;;;26.45;;
30149;SDS011;16962;48.646;9.026;2022-07-21T04:16:25;34.28;;;25.85;;
30149;SDS011;16962;48.646;9.026;2022-07-21T04:19:13;35.55;;;26.65;;
30149;SDS011;16962;48.646;9.026;2022-07-21T04:22:04;36.25;;;25.27;;
30149;SDS011;16962;48.646;9.026;2022-07-21T04:24:52;33.63;;;26.88;;
30149;SDS011;16962;48.646;9.026;2022-07-21T04:27:44;48.15;;;26.92;;
30149;SDS011;16962;48.646;9.026;2022-07-21T04:30:32;37.97;;;28.67;;
30149;SDS011;16962;48.646;9.026;2022-07-21T04:33:22;34.92;;;27.75;;
30149;SDS011;16962;48.646;9.026;2022-07-21T04:36:09;37.47;;;28.90;;
30149;SDS011;16962;48.646;9.026;2022-07-21T04:38:58;38.08;;;28.38;;
30149;SDS011;16962;48.646;9.026;2022-07-21T04:41:48;43.08;;;28.35;;
30149;SDS011;16962;48.646;9.026;2022-07-21T04:44:35;38.88;;;27.17;;
30149;SDS011;16962;48.646;9.026;2022-07-21T04:47:23;40.20;;;29.70;;
30149;SDS011;16962;48.646;9.026;2022-07-21T04:50:13;35.00;;;27.23;;
30149;SDS011;16962;48.646;9.026;2022-07-21T04:53:02;38.15;;;28.40;;
30149;SDS011;16962;48.646;9.026;2022-07-21T04:55:49;41.47;;;29.13;;
30149;SDS011;16962;48.646;9.026;2022-07-21T04:58:39;36.67;;;27.63;;
30149;SDS011;16962;48.646;9.026;2022-07-21T05:01:28;36.05;;;28.80;;
30149;SDS011;16962;48.646;9.026;2022-07-21T05:04:15;35.03;;;26.42;;
30149;SDS011;16962;48.646;9.026;2022-07-21T05:07:08;34.53;;;27.25;;
30149;SDS011;16962;48.646;9.026;2022-07-21T05:09:57;35.17;;;26.90;;
30149;SDS011;16962;48.646;9.026;2022-07-21T05:12:54;32.55;;;27.42;;
30149;SDS011;16962;48.646;9.026;2022-07-21T05:15:46;28.50;;;23.77;;
30149;SDS011;16962;48.646;9.026;2022-07-21T05:18:33;35.15;;;23.80;;
30149;SDS011;16962;48.646;9.026;2022-07-21T05:21:20;26.88;;;23.17;;
30149;SDS011;16962;48.646;9.026;2022-07-21T05:24:07;30.80;;;23.65;;
30149;SDS011;16962;48.646;9.026;2022-07-21T05:26:56;26.52;;;21.00;;
30149;SDS011;16962;48.646;9.026;2022-07-21T05:29:43;25.58;;;22.75;;
30149;SDS011;16962;48.646;9.026;2022-07-21T05:32:30;26.05;;;21.45;;
30149;SDS011;16962;48.646;9.026;2022-07-21T05:35:20;23.33;;;19.75;;
30149;SDS011;16962;48.646;9.026;2022-07-21T05:38:09;25.15;;;18.95;;
30149;SDS011;16962;48.646;9.026;2022-07-21T05:40:56;21.42;;;17.20;;
30149;SDS011;16962;48.646;9.026;2022-07-21T05:43:49;21.20;;;18.15;;
30149;SDS011;16962;48.646;9.026;2022-07-21T05:46:39;25.30;;;17.60;;
30149;SDS011;16962;48.646;9.026;2022-07-21T05:49:26;20.48;;;17.40;;
30149;SDS011;16962;48.646;9.026;2022-07-21T05:52:16;24.67;;;16.92;;
30149;SDS011;16962;48.646;9.026;2022-07-21T05:55:10;20.92;;;15.50;;
30149;SDS011;16962;48.646;9.026;2022-07-21T05:58:00;19.02;;;15.32;;
30149;SDS011;16962;48.646;9.026;2022-07-21T06:00:59;20.85;;;15.15;;
30149;SDS011;16962;48.646;9.026;2022-07-21T06:03:59;21.58;;;14.35;;
30149;SDS011;16962;48.646;9.026;2022-07-21T06:06:49;19.48;;;14.70;;
30149;SDS011;16962;48.646;9.026;2022-07-21T06:09:38;19.20;;;14.65;;
30149;SDS011;16962;48.646;9.026;2022-07-21T06:12:28;17.13;;;14.13;;
30149;SDS011;16962;48.646;9.026;2022-07-21T06:15:15;20.73;;;14.60;;
30149;SDS011;16962;48.646;9.026;2022-07-21T06:18:07;17.27;;;12.88;;
30149;SDS011;16962;48.646;9.026;2022-07-21T06:20:54;15.95;;;13.05;;
30149;SDS011;16962;48.646;9.026;2022-07-21T06:23:41;16.15;;;13.32;;
30149;SDS011;16962;48.646;9.026;2022-07-21T06:26:29;20.30;;;12.43;;
30149;SDS011;16962;48.646;9.026;2022-07-21T06:29:19;15.50;;;12.63;;
30149;SDS011;16962;48.646;9.026;2022-07-21T06:32:08;15.90;;;11.02;;
30149;SDS011;16962;48.646;9.026;2022-07-21T06:37:51;14.80;;;12.00;;
30149;SDS011;16962;48.646;9.026;2022-07-21T06:40:40;15.07;;;11.05;;
30149;SDS011;16962;48.646;9.026;2022-07-21T06:43:31;17.38;;;11.38;;
30149;SDS011;16962;48.646;9.026;2022-07-21T06:46:19;12.98;;;10.93;;
30149;SDS011;16962;48.646;9.026;2022-07-21T06:49:11;15.32;;;12.18;;
30149;SDS011;16962;48.646;9.026;2022-07-21T06:51:59;16.42;;;11.48;;
30149;SDS011;16962;48.646;9.026;2022-07-21T06:54:49;14.13;;;11.07;;
30149;SDS011;16962;48.646;9.026;2022-07-21T06:57:36;12.90;;;10.27;;
30149;SDS011;16962;48.646;9.026;2022-07-21T07:00:23;14.73;;;10.45;;
30149;SDS011;16962;48.646;9.026;2022-07-21T07:03:11;13.57;;;10.60;;
30149;SDS011;16962;48.646;9.026;2022-07-21T07:05:59;13.43;;;10.77;;
30149;SDS011;16962;48.646;9.026;2022-07-21T07:08:46;10.15;;;9.00;;
30149;SDS011;16962;48.646;9.026;2022-07-21T07:11:33;11.18;;;9.55;;
30149;SDS011;16962;48.646;9.026;2022-07-21T07:14:21;11.40;;;9.90;;
30149;SDS011;16962;48.646;9.026;2022-07-21T07:17:14;13.40;;;8.95;;
30149;SDS011;16962;48.646;9.026;2022-07-21T07:20:06;10.23;;;8.20;;
30149;SDS011;16962;48.646;9.026;2022-07-21T07:22:54;12.13;;;8.63;;
30149;SDS011;16962;48.646;9.026;2022-07-21T07:25:41;12.63;;;8.05;;
30149;SDS011;16962;48.646;9.026;2022-07-21T07:28:31;9.43;;;7.53;;
30149;SDS011;16962;48.646;9.026;2022-07-21T07:31:18;10.48;;;7.85;;
30149;SDS011;16962;48.646;9.026;2022-07-21T07:34:06;9.68;;;7.65;;
30149;SDS011;16962;48.646;9.026;2022-07-21T07:36:59;9.35;;;7.53;;
30149;SDS011;16962;48.646;9.026;2022-07-21T07:39:49;9.90;;;6.90;;
30149;SDS011;16962;48.646;9.026;2022-07-21T07:42:37;10.38;;;6.95;;
30149;SDS011;16962;48.646;9.026;2022-07-21T07:45:27;8.23;;;7.40;;
30149;SDS011;16962;48.646;9.026;2022-07-21T07:48:14;11.00;;;7.30;;
30149;SDS011;16962;48.646;9.026;2022-07-21T07:51:01;9.35;;;6.65;;
30149;SDS011;16962;48.646;9.026;2022-07-21T07:53:56;8.65;;;7.65;;
30149;SDS011;16962;48.646;9.026;2022-07-21T07:56:47;12.30;;;7.28;;
30149;SDS011;16962;48.646;9.026;2022-07-21T07:59:37;8.25;;;6.32;;
30149;SDS011;16962;48.646;9.026;2022-07-21T08:02:24;7.43;;;6.15;;
30149;SDS011;16962;48.646;9.026;2022-07-21T08:05:14;7.15;;;5.43;;
30149;SDS011;16962;48.646;9.026;2022-07-21T08:08:02;9.18;;;6.35;;
30149;SDS011;16962;48.646;9.026;2022-07-21T08:10:51;10.63;;;6.88;;
30149;SDS011;16962;48.646;9.026;2022-07-21T08:13:39;13.20;;;6.38;;
30149;SDS011;16962;48.646;9.026;2022-07-21T08:16:27;7.85;;;6.07;;
30149;SDS011;16962;48.646;9.026;2022-07-21T08:19:19;9.05;;;5.90;;
30149;SDS011;16962;48.646;9.026;2022-07-21T08:22:06;7.65;;;5.35;;
30149;SDS011;16962;48.646;9.026;2022-07-21T08:24:59;8.15;;;5.40;;
30149;SDS011;16962;48.646;9.026;2022-07-21T08:27:49;8.05;;;6.93;;
30149;SDS011;16962;48.646;9.026;2022-07-21T08:30:37;7.35;;;6.25;;
30149;SDS011;16962;48.646;9.026;2022-07-21T08:33:24;6.90;;;5.75;;
30149;SDS011;16962;48.646;9.026;2022-07-21T08:36:13;8.90;;;6.32;;
30149;SDS011;16962;48.646;9.026;2022-07-21T08:39:05;10.23;;;6.20;;
30149;SDS011;16962;48.646;9.026;2022-07-21T08:41:57;7.22;;;5.20;;
30149;SDS011;16962;48.646;9.026;2022-07-21T08:44:49;7.70;;;6.30;;
30149;SDS011;16962;48.646;9.026;2022-07-21T08:47:36;7.35;;;5.60;;
30149;SDS011;16962;48.646;9.026;2022-07-21T08:50:34;7.45;;;5.70;;
30149;SDS011;16962;48.646;9.026;2022-07-21T08:53:24;9.98;;;6.05;;
30149;SDS011;16962;48.646;9.026;2022-07-21T08:56:12;8.02;;;5.75;;
30149;SDS011;16962;48.646;9.026;2022-07-21T08:59:00;7.68;;;5.68;;
30149;SDS011;16962;48.646;9.026;2022-07-21T09:04:41;7.03;;;5.35;;
30149;SDS011;16962;48.646;9.026;2022-07-21T09:07:46;8.82;;;5.72;;
30149;SDS011;16962;48.646;9.026;2022-07-21T09:10:33;8.95;;;5.35;;
30149;SDS011;16962;48.646;9.026;2022-07-21T09:13:23;7.25;;;5.38;;
30149;SDS011;16962;48.646;9.026;2022-07-21T09:16:18;6.60;;;5.15;;
30149;SDS011;16962;48.646;9.026;2022-07-21T09:22:15;9.77;;;6.25;;
30149;SDS011;16962;48.646;9.026;2022-07-21T09:25:06;7.70;;;5.80;;
30149;SDS011;16962;48.646;9.026;2022-07-21T09:28:05;12.05;;;6.25;;
30149;SDS011;16962;48.646;9.026;2022-07-21T09:31:05;9.40;;;6.15;;
30149;SDS011;16962;48.646;9.026;2022-07-21T09:33:56;7.22;;;4.70;;
30149;SDS011;16962;48.646;9.026;2022-07-21T09:36:58;6.80;;;5.05;;
30149;SDS011;16962;48.646;9.026;2022-07-21T09:39:46;7.00;;;4.85;;
30149;SDS011;16962;48.646;9.026;2022-07-21T09:45:24;9.32;;;5.18;;
30149;SDS011;16962;48.646;9.026;2022-07-21T09:48:28;8.32;;;5.50;;
30149;SDS011;16962;48.646;9.026;2022-07-21T09:54:17;5.78;;;4.18;;
30149;SDS011;16962;48.646;9.026;2022-07-21T09:57:04;6.75;;;3.95;;
30149;SDS011;16962;48.646;9.026;2022-07-21T09:59:52;4.78;;;4.18;;
30149;SDS011;16962;48.646;9.026;2022-07-21T10:02:54;5.10;;;3.80;;
30149;SDS011;16962;48.646;9.026;2022-07-21T10:05:43;4.35;;;3.60;;
30149;SDS011;16962;48.646;9.026;2022-07-21T10:08:31;5.25;;;4.10;;
30149;SDS011;16962;48.646;9.026;2022-07-21T10:11:21;5.90;;;4.70;;
30149;SDS011;16962;48.646;9.026;2022-07-21T10:14:15;6.10;;;4.18;;
30149;SDS011;16962;48.646;9.026;2022-07-21T10:17:05;7.57;;;4.25;;
30149;SDS011;16962;48.646;9.026;2022-07-21T10:20:15;4.90;;;4.18;;
30149;SDS011;16962;48.646;9.026;2022-07-21T10:23:06;4.15;;;3.42;;
30149;SDS011;16962;48.646;9.026;2022-07-21T10:26:09;7.72;;;3.90;;
30149;SDS011;16962;48.646;9.026;2022-07-21T10:28:57;3.38;;;2.92;;
30149;SDS011;16962;48.646;9.026;2022-07-21T10:31:45;3.63;;;3.33;;
30149;SDS011;16962;48.646;9.026;2022-07-21T10:34:38;4.88;;;2.95;;
30149;SDS011;16962;48.646;9.026;2022-07-21T10:46:04;5.78;;;3.33;;
30149;SDS011;16962;48.646;9.026;2022-07-21T10:49:40;4.20;;;3.78;;
30149;SDS011;16962;48.646;9.026;2022-07-21T10:55:36;12.65;;;4.22;;
30149;SDS011;16962;48.646;9.026;2022-07-21T11:04:07;4.93;;;3.42;;
30149;SDS011;16962;48.646;9.026;2022-07-21T11:06:59;5.28;;;3.60;;
30149;SDS011;16962;48.646;9.026;2022-07-21T11:13:04;5.40;;;3.75;;
30149;SDS011;16962;48.646;9.026;2022-07-21T11:16:00;5.00;;;3.92;;
30149;SDS011;16962;48.646;9.026;2022-07-21T11:18:47;11.40;;;3.95;;
30149;SDS011;16962;48.646;9.026;2022-07-21T11:21:35;5.28;;;3.60;;
30149;SDS011;16962;48.646;9.026;2022-07-21T11:24:22;4.47;;;3.40;;
30149;SDS011;16962;48.646;9.026;2022-07-21T11:27:15;5.80;;;3.35;;
30149;SDS011;16962;48.646;9.026;2022-07-21T11:30:09;5.90;;;3.15;;
30149;SDS011;16962;48.646;9.026;2022-07-21T11:32:59;5.90;;;3.60;;
30149;SDS011;16962;48.646;9.026;2022-07-21T11:35:46;4.50;;;3.10;;
30149;SDS011;16962;48.646;9.026;2022-07-21T11:38:34;3.30;;;2.42;;
30149;SDS011;16962;48.646;9.026;2022-07-21T11:41:21;4.07;;;2.75;;
30149;SDS011;16962;48.646;9.026;2022-07-21T11:44:09;3.00;;;2.67;;
30149;SDS011;16962;48.646;9.026;2022-07-21T11:46:59;3.20;;;2.50;;
30149;SDS011;16962;48.646;9.026;2022-07-21T11:49:49;5.53;;;2.65;;
30149;SDS011;16962;48.646;9.026;2022-07-21T11:52:40;3.17;;;2.50;;
30149;SDS011;16962;48.646;9.026;2022-07-21T11:55:27;3.45;;;2.65;;
30149;SDS011;16962;48.646;9.026;2022-07-21T11:58:16;3.38;;;2.55;;
30149;SDS011;16962;48.646;9.026;2022-07-21T12:01:08;3.65;;;2.75;;
30149;SDS011;16962;48.646;9.026;2022-07-21T12:03:57;3.33;;;2.70;;
30149;SDS011;16962;48.646;9.026;2022-07-21T12:06:45;5.43;;;3.47;;
30149;SDS011;16962;48.646;9.026;2022-07-21T12:09:33;3.38;;;3.08;;
30149;SDS011;16962;48.646;9.026;2022-07-21T12:12:27;3.80;;;2.58;;
30149;SDS011;16962;48.646;9.026;2022-07-21T12:18:17;2.85;;;2.65;;
30149;SDS011;16962;48.646;9.026;2022-07-21T12:21:06;3.65;;;3.00;;
30149;SDS011;16962;48.646;9.026;2022-07-21T12:23:54;4.72;;;3.05;;
30149;SDS011;16962;48.646;9.026;2022-07-21T12:26:42;5.18;;;3.15;;
30149;SDS011;16962;48.646;9.026;2022-07-21T12:29:29;5.72;;;2.92;;
30149;SDS011;16962;48.646;9.026;2022-07-21T12:32:37;4.60;;;2.90;;
30149;SDS011;16962;48.646;9.026;2022-07-21T12:35:29;4.13;;;2.72;;
30149;SDS011;16962;48.646;9.026;2022-07-21T12:38:18;3.45;;;2.80;;
30149;SDS011;16962;48.646;9.026;2022-07-21T12:41:06;5.65;;;2.55;;
30149;SDS011;16962;48.646;9.026;2022-07-21T12:44:11;5.30;;;2.80;;
30149;SDS011;16962;48.646;9.026;2022-07-21T12:47:12;4.75;;;2.75;;
30149;SDS011;16962;48.646;9.026;2022-07-21T12:53:10;13.90;;;4.80;;
30149;SDS011;16962;48.646;9.026;2022-07-21T12:55:58;7.45;;;3.38;;
30149;SDS011;16962;48.646;9.026;2022-07-21T12:58:48;3.85;;;2.90;;
30149;SDS011;16962;48.646;9.026;2022-07-21T13:01:36;3.15;;;2.80;;
30149;SDS011;16962;48.646;9.026;2022-07-21T13:04:25;3.13;;;2.60;;
30149;SDS011;16962;48.646;9.026;2022-07-21T13:07:15;4.40;;;2.80;;
30149;SDS011;16962;48.646;9.026;2022-07-21T13:10:03;4.05;;;2.92;;
30149;SDS011;16962;48.646;9.026;2022-07-21T13:12:50;5.45;;;2.83;;
30149;SDS011;16962;48.646;9.026;2022-07-21T13:15:37;4.88;;;2.53;;
30149;SDS011;16962;48.646;9.026;2022-07-21T13:18:25;4.38;;;2.80;;
30149;SDS011;16962;48.646;9.026;2022-07-21T13:21:12;3.95;;;3.00;;
30149;SDS011;16962;48.646;9.026;2022-07-21T13:24:00;3.15;;;2.75;;
30149;SDS011;16962;48.646;9.026;2022-07-21T13:26:47;3.10;;;2.80;;
30149;SDS011;16962;48.646;9.026;2022-07-21T13:29:34;7.78;;;3.10;;
30149;SDS011;16962;48.646;9.026;2022-07-21T13:32:23;4.40;;;2.83;;
30149;SDS011;16962;48.646;9.026;2022-07-21T13:35:11;5.32;;;3.25;;
30149;SDS011;16962;48.646;9.026;2022-07-21T13:38:15;3.90;;;3.53;;
30149;SDS011;16962;48.646;9.026;2022-07-21T13:41:02;5.07;;;3.30;;
30149;SDS011;16962;48.646;9.026;2022-07-21T13:44:10;4.00;;;3.65;;
30149;SDS011;16962;48.646;9.026;2022-07-21T13:46:57;7.07;;;4.40;;
30149;SDS011;16962;48.646;9.026;2022-07-21T13:49:45;7.38;;;4.40;;
30149;SDS011;16962;48.646;9.026;2022-07-21T13:52:35;5.00;;;3.88;;
30149;SDS011;16962;48.646;9.026;2022-07-21T13:55:23;6.20;;;3.88;;
30149;SDS011;16962;48.646;9.026;2022-07-21T13:58:14;4.70;;;3.65;;
30149;SDS011;16962;48.646;9.026;2022-07-21T14:01:01;5.55;;;4.30;;
30149;SDS011;16962;48.646;9.026;2022-07-21T14:03:51;4.18;;;3.58;;
30149;SDS011;16962;48.646;9.026;2022-07-21T14:06:39;7.28;;;3.83;;
30149;SDS011;16962;48.646;9.026;2022-07-21T14:09:28;4.13;;;3.47;;
30149;SDS011;16962;48.646;9.026;2022-07-21T14:12:17;8.95;;;4.10;;
30149;SDS011;16962;48.646;9.026;2022-07-21T14:15:05;4.53;;;3.78;;
30149;SDS011;16962;48.646;9.026;2022-07-21T14:17:53;4.95;;;4.20;;
30149;SDS011;16962;48.646;9.026;2022-07-21T14:20:43;6.32;;;3.97;;
30149;SDS011;16962;48.646;9.026;2022-07-21T14:23:31;7.55;;;4.72;;
30149;SDS011;16962;48.646;9.026;2022-07-21T14:26:19;5.43;;;3.65;;
30149;SDS011;16962;48.646;9.026;2022-07-21T14:29:07;5.30;;;3.90;;
30149;SDS011;16962;48.646;9.026;2022-07-21T14:31:54;5.10;;;3.85;;
30149;SDS011;16962;48.646;9.026;2022-07-21T14:34:42;4.38;;;4.03;;
30149;SDS011;16962;48.646;9.026;2022-07-21T14:37:30;5.03;;;3.95;;
30149;SDS011;16962;48.646;9.026;2022-07-21T14:40:18;4.88;;;3.75;;
30149;SDS011;16962;48.646;9.026;2022-07-21T14:43:08;4.10;;;3.70;;
30149;SDS011;16962;48.646;9.026;2022-07-21T14:45:58;5.45;;;3.67;;
30149;SDS011;16962;48.646;9.026;2022-07-21T14:48:45;5.50;;;3.92;;
30149;SDS011;16962;48.646;9.026;2022-07-21T14:51:33;5.72;;;4.25;;
30149;SDS011;16962;48.646;9.026;2022-07-21T14:54:22;6.72;;;4.35;;
30149;SDS011;16962;48.646;9.026;2022-07-21T14:57:12;4.78;;;3.92;;
30149;SDS011;16962;48.646;9.026;2022-07-21T14:59:59;6.28;;;4.30;;
30149;SDS011;16962;48.646;9.026;2022-07-21T15:02:46;6.47;;;4.10;;
30149;SDS011;16962;48.646;9.026;2022-07-21T15:05:34;6.78;;;4.35;;
30149;SDS011;16962;48.646;9.026;2022-07-21T15:08:21;6.63;;;4.30;;
30149;SDS011;16962;48.646;9.026;2022-07-21T15:11:11;5.20;;;3.72;;
30149;SDS011;16962;48.646;9.026;2022-07-21T15:14:00;5.00;;;3.88;;
30149;SDS011;16962;48.646;9.026;2022-07-21T15:16:48;3.95;;;3.55;;
30149;SDS011;16962;48.646;9.026;2022-07-21T15:19:35;5.10;;;3.88;;
30149;SDS011;16962;48.646;9.026;2022-07-21T15:22:22;6.30;;;3.75;;
30149;SDS011;16962;48.646;9.026;2022-07-21T15:25:12;7.18;;;3.47;;
30149;SDS011;16962;48.646;9.026;2022-07-21T15:27:59;7.00;;;4.15;;
30149;SDS011;16962;48.646;9.026;2022-07-21T15:30:49;4.97;;;3.63;;
30149;SDS011;16962;48.646;9.026;2022-07-21T15:33:38;3.92;;;3.50;;
30149;SDS011;16962;48.646;9.026;2022-07-21T15:36:26;4.78;;;3.58;;
30149;SDS011;16962;48.646;9.026;2022-07-21T15:39:16;4.15;;;3.45;;
30149;SDS011;16962;48.646;9.026;2022-07-21T15:42:07;4.60;;;3.35;;
30149;SDS011;16962;48.646;9.026;2022-07-21T15:44:58;6.97;;;3.55;;
30149;SDS011;16962;48.646;9.026;2022-07-21T15:47:48;6.65;;;3.83;;
30149;SDS011;16962;48.646;9.026;2022-07-21T15:50:36;4.25;;;3.45;;
30149;SDS011;16962;48.646;9.026;2022-07-21T15:53:26;6.82;;;3.40;;
30149;SDS011;16962;48.646;9.026;2022-07-21T15:56:14;4.88;;;3.58;;
30149;SDS011;16962;48.646;9.026;2022-07-21T15:59:02;3.92;;;3.53;;
30149;SDS011;16962;48.646;9.026;2022-07-21T16:02:09;4.72;;;3.53;;
30149;SDS011;16962;48.646;9.026;2022-07-21T16:04:58;5.05;;;3.55;;
30149;SDS011;16962;48.646;9.026;2022-07-21T16:07:46;4.10;;;3.50;;
30149;SDS011;16962;48.646;9.026;2022-07-21T16:10:38;4.82;;;3.05;;
30149;SDS011;16962;48.646;9.026;2022-07-21T16:13:26;4.75;;;3.38;;
30149;SDS011;16962;48.646;9.026;2022-07-21T16:16:13;5.53;;;3.45;;
30149;SDS011;16962;48.646;9.026;2022-07-21T16:19:00;4.85;;;3.35;;
30149;SDS011;16962;48.646;9.026;2022-07-21T16:21:50;3.42;;;3.08;;
30149;SDS011;16962;48.646;9.026;2022-07-21T16:24:41;4.67;;;3.43;;
30149;SDS011;16962;48.646;9.026;2022-07-21T16:27:28;5.85;;;3.20;;
30149;SDS011;16962;48.646;9.026;2022-07-21T16:30:18;7.68;;;3.75;;
30149;SDS011;16962;48.646;9.026;2022-07-21T16:33:05;4.05;;;3.63;;
30149;SDS011;16962;48.646;9.026;2022-07-21T16:35:55;7.43;;;3.58;;
30149;SDS011;16962;48.646;9.026;2022-07-21T16:38:42;5.10;;;3.33;;
30149;SDS011;16962;48.646;9.026;2022-07-21T16:41:29;3.38;;;3.08;;
30149;SDS011;16962;48.646;9.026;2022-07-21T16:44:17;4.22;;;3.50;;
30149;SDS011;16962;48.646;9.026;2022-07-21T16:47:04;6.13;;;3.75;;
30149;SDS011;16962;48.646;9.026;2022-07-21T16:49:52;6.47;;;3.85;;
30149;SDS011;16962;48.646;9.026;2022-07-21T16:52:42;5.47;;;3.72;;
30149;SDS011;16962;48.646;9.026;2022-07-21T16:55:29;5.78;;;3.83;;
30149;SDS011;16962;48.646;9.026;2022-07-21T16:58:19;8.38;;;4.38;;
30149;SDS011;16962;48.646;9.026;2022-07-21T17:01:09;5.30;;;3.88;;
30149;SDS011;16962;48.646;9.026;2022-07-21T17:03:57;7.25;;;3.72;;
30149;SDS011;16962;48.646;9.026;2022-07-21T17:06:44;4.30;;;3.80;;
30149;SDS011;16962;48.646;9.026;2022-07-21T17:09:34;6.53;;;3.97;;
30149;SDS011;16962;48.646;9.026;2022-07-21T17:12:21;8.88;;;4.40;;
30149;SDS011;16962;48.646;9.026;2022-07-21T17:15:08;11.00;;;4.32;;
30149;SDS011;16962;48.646;9.026;2022-07-21T17:17:56;5.50;;;3.80;;
30149;SDS011;16962;48.646;9.026;2022-07-21T17:20:46;5.40;;;3.70;;
30149;SDS011;16962;48.646;9.026;2022-07-21T17:23:35;5.63;;;4.15;;
30149;SDS011;16962;48.646;9.026;2022-07-21T17:26:24;4.97;;;3.72;;
30149;SDS011;16962;48.646;9.026;2022-07-21T17:29:11;6.20;;;4.07;;
30149;SDS011;16962;48.646;9.026;2022-07-21T17:31:58;4.32;;;3.63;;
30149;SDS011;16962;48.646;9.026;2022-07-21T17:34:48;5.53;;;3.67;;
30149;SDS011;16962;48.646;9.026;2022-07-21T17:37:36;6.57;;;3.50;;
30149;SDS011;16962;48.646;9.026;2022-07-21T17:40:27;5.72;;;3.75;;